Time;durP1;ratioP1;P1;durP2;ratioP2;P2;SDS_P1;SDS_P2;PMS_P1;PMS_P2;Temp;Humidity;BMP_temperature;BMP_pressure;BME280_temperature;BME280_humidity;BME280_pressure;Samples;Min_cycle;Max_cycle;Signal;HPM_P1;HPM_P2
2023/06/23 00:01:36;;;;;;;7.77;6.10;;;17.30;99.90;;;;;;485129;244;28820;-79
2023/06/23 00:03:38;;;;;;;5.93;5.17;;;17.20;99.90;;;;;;485131;244;28795;-79
2023/06/23 00:05:39;;;;;;;6.63;5.63;;;17.30;99.90;;;;;;485123;244;29183;-79
2023/06/23 00:07:40;;;;;;;7.03;6.07;;;17.30;99.90;;;;;;485276;244;29241;-80
2023/06/23 00:09:43;;;;;;;6.57;5.73;;;17.30;99.90;;;;;;485145;244;29168;-79
2023/06/23 00:11:42;;;;;;;6.77;6.10;;;17.20;99.90;;;;;;485016;244;28713;-79
2023/06/23 00:13:44;;;;;;;6.87;6.17;;;17.20;99.90;;;;;;485046;244;28723;-79
2023/06/23 00:15:45;;;;;;;8.30;6.50;;;17.20;99.90;;;;;;485078;244;28716;-80
2023/06/23 00:17:46;;;;;;;9.10;7.00;;;17.20;99.90;;;;;;485083;244;28742;-79
2023/06/23 00:19:48;;;;;;;8.70;7.23;;;17.10;99.90;;;;;;485067;244;28773;-79
2023/06/23 00:21:49;;;;;;;8.10;6.30;;;17.10;99.90;;;;;;485032;244;28714;-79
2023/06/23 00:23:50;;;;;;;8.97;7.30;;;17.10;99.90;;;;;;485067;244;28868;-79
2023/06/23 00:25:52;;;;;;;8.80;7.77;;;17.10;99.90;;;;;;485014;244;28710;-79
2023/06/23 00:27:52;;;;;;;8.00;7.20;;;17.00;99.90;;;;;;485045;244;28801;-79
2023/06/23 00:29:54;;;;;;;9.73;7.70;;;17.00;99.90;;;;;;485065;244;29262;-79
2023/06/23 00:31:55;;;;;;;8.77;7.87;;;17.00;99.90;;;;;;485116;244;29254;-79
2023/06/23 00:33:56;;;;;;;8.33;7.10;;;17.10;99.90;;;;;;479785;244;29329;-79
2023/06/23 00:35:58;;;;;;;12.37;8.27;;;17.10;99.90;;;;;;485105;244;29754;-80
2023/06/23 00:37:59;;;;;;;9.77;7.00;;;17.00;99.90;;;;;;484985;244;28772;-79
2023/06/23 00:40:00;;;;;;;9.97;8.43;;;17.00;99.90;;;;;;485042;244;28710;-79
2023/06/23 00:42:01;;;;;;;8.60;7.60;;;17.10;99.90;;;;;;485051;244;28712;-79
2023/06/23 00:44:04;;;;;;;8.50;7.20;;;17.10;99.90;;;;;;485082;244;28808;-78
2023/06/23 00:46:04;;;;;;;10.07;8.83;;;17.10;99.90;;;;;;484990;244;28805;-79
2023/06/23 00:48:05;;;;;;;11.87;9.13;;;17.10;99.90;;;;;;485043;244;28787;-78
2023/06/23 00:50:06;;;;;;;10.20;8.30;;;17.00;99.90;;;;;;485029;244;28783;-79
2023/06/23 00:52:08;;;;;;;8.10;7.23;;;17.00;99.90;;;;;;485069;244;29197;-79
2023/06/23 00:54:09;;;;;;;10.70;8.73;;;17.10;99.90;;;;;;485116;244;29274;-79
2023/06/23 00:56:10;;;;;;;8.80;7.43;;;17.10;99.90;;;;;;485080;244;29337;-79
2023/06/23 00:58:11;;;;;;;8.57;7.67;;;17.10;99.90;;;;;;485052;244;28797;-79
2023/06/23 01:00:19;;;;;;;12.00;8.90;;;17.10;99.90;;;;;;485038;244;28710;-79
2023/06/23 01:02:20;;;;;;;9.47;7.70;;;17.10;99.90;;;;;;485082;244;28757;-79
2023/06/23 01:04:22;;;;;;;10.37;8.40;;;17.10;99.90;;;;;;485081;244;28785;-80
2023/06/23 01:06:22;;;;;;;9.30;8.13;;;17.10;99.90;;;;;;485026;244;28721;-79
2023/06/23 01:08:25;;;;;;;10.53;9.43;;;17.10;99.90;;;;;;485012;244;28799;-79
2023/06/23 01:10:25;;;;;;;10.80;8.47;;;17.10;99.90;;;;;;484944;244;28799;-79
2023/06/23 01:12:26;;;;;;;8.37;7.50;;;17.10;99.90;;;;;;484969;244;29165;-79
2023/06/23 01:14:27;;;;;;;10.20;8.30;;;17.10;99.90;;;;;;479682;244;29297;-79
2023/06/23 01:16:29;;;;;;;11.70;9.53;;;17.10;99.90;;;;;;485000;244;29192;-79
2023/06/23 01:18:30;;;;;;;9.13;8.17;;;17.10;99.90;;;;;;471730;243;29143;-79
2023/06/23 01:20:31;;;;;;;11.10;9.40;;;17.00;99.90;;;;;;479671;244;28782;-79
2023/06/23 01:22:32;;;;;;;11.37;8.67;;;17.00;99.90;;;;;;481041;243;28869;-78
2023/06/23 01:24:34;;;;;;;11.37;10.13;;;17.00;99.90;;;;;;479668;244;28787;-79
2023/06/23 01:26:35;;;;;;;13.03;9.83;;;16.90;99.90;;;;;;489670;242;28901;-79
2023/06/23 01:28:38;;;;;;;13.27;11.13;;;16.90;99.90;;;;;;484964;244;28706;-80
2023/06/23 01:30:37;;;;;;;12.13;10.90;;;16.80;99.90;;;;;;480214;243;28943;-80
2023/06/23 01:32:39;;;;;;;12.40;10.50;;;16.80;99.90;;;;;;487164;242;29286;-79
2023/06/23 01:34:40;;;;;;;11.43;9.90;;;16.70;99.90;;;;;;489666;240;29301;-79
2023/06/23 01:36:41;;;;;;;13.17;10.93;;;16.80;99.90;;;;;;479621;244;28840;-79
2023/06/23 01:38:42;;;;;;;11.73;10.37;;;16.80;99.90;;;;;;489647;242;28871;-79
2023/06/23 01:40:44;;;;;;;10.83;9.40;;;16.80;99.90;;;;;;489636;242;28861;-79
2023/06/23 01:42:45;;;;;;;13.00;11.27;;;16.80;99.90;;;;;;479623;244;28758;-79
2023/06/23 01:44:46;;;;;;;13.53;11.33;;;16.90;99.90;;;;;;480225;244;28838;-79
2023/06/23 01:46:47;;;;;;;11.77;9.87;;;16.90;99.90;;;;;;489646;242;29298;-80
2023/06/23 01:48:49;;;;;;;13.50;11.20;;;16.90;99.90;;;;;;481025;243;29871;-80
2023/06/23 01:50:50;;;;;;;12.60;10.20;;;16.90;99.90;;;;;;488440;243;28838;-79
2023/06/23 01:52:51;;;;;;;12.50;11.20;;;16.90;99.90;;;;;;488422;242;28872;-79
2023/06/23 01:54:52;;;;;;;14.67;11.90;;;16.90;99.90;;;;;;489644;242;28944;-79
2023/06/23 01:56:54;;;;;;;11.80;10.13;;;16.90;99.90;;;;;;489630;242;28846;-79
2023/06/23 01:58:55;;;;;;;14.03;12.40;;;16.90;99.90;;;;;;488492;243;28894;-79
2023/06/23 02:00:56;;;;;;;13.93;12.03;;;16.90;99.90;;;;;;489637;242;28863;-79
2023/06/23 02:02:58;;;;;;;14.77;12.70;;;16.90;99.90;;;;;;489631;242;29354;-79
2023/06/23 02:04:59;;;;;;;15.37;12.50;;;16.90;99.90;;;;;;488419;243;29408;-79
2023/06/23 02:07:00;;;;;;;14.97;12.57;;;16.80;99.90;;;;;;489459;242;28802;-80
2023/06/23 02:09:01;;;;;;;17.13;13.10;;;16.80;99.90;;;;;;488429;243;28861;-79
2023/06/23 02:11:03;;;;;;;17.97;14.67;;;16.80;99.90;;;;;;489646;242;29021;-79
2023/06/23 02:13:04;;;;;;;15.80;12.97;;;16.80;99.90;;;;;;489602;242;28818;-79
2023/06/23 02:15:05;;;;;;;15.60;13.10;;;16.80;99.90;;;;;;488427;243;28865;-79
2023/06/23 02:17:10;;;;;;;18.67;15.73;;;16.80;99.90;;;;;;489440;242;29296;-79
2023/06/23 02:19:08;;;;;;;17.77;13.80;;;16.70;99.90;;;;;;475624;244;29460;-79
2023/06/23 02:21:09;;;;;;;17.30;14.80;;;16.70;99.90;;;;;;488455;243;28859;-79
2023/06/23 02:23:10;;;;;;;20.27;16.20;;;16.70;99.90;;;;;;489638;242;28994;-80
2023/06/23 02:25:11;;;;;;;21.00;16.37;;;16.60;99.90;;;;;;480240;244;28814;-79
2023/06/23 02:27:13;;;;;;;22.47;16.67;;;16.60;99.90;;;;;;489582;242;28928;-79
2023/06/23 02:29:14;;;;;;;19.80;16.70;;;16.50;99.90;;;;;;489763;242;28807;-80
2023/06/23 02:31:15;;;;;;;18.73;16.10;;;16.50;99.90;;;;;;488593;243;28861;-79
2023/06/23 02:33:16;;;;;;;21.67;17.00;;;16.50;99.90;;;;;;481530;244;29344;-79
2023/06/23 02:35:18;;;;;;;25.87;19.67;;;16.50;99.90;;;;;;489801;242;28870;-79
2023/06/23 02:37:19;;;;;;;22.10;17.77;;;16.50;99.90;;;;;;488369;243;28795;-79
2023/06/23 02:39:20;;;;;;;25.23;20.30;;;16.40;99.90;;;;;;489673;242;28882;-79
2023/06/23 02:41:21;;;;;;;27.73;19.70;;;16.40;99.90;;;;;;488464;243;28823;-79
2023/06/23 02:43:23;;;;;;;24.23;18.20;;;16.40;99.90;;;;;;489671;242;28974;-79
2023/06/23 02:45:24;;;;;;;27.80;19.93;;;16.40;99.90;;;;;;489717;242;29359;-79
2023/06/23 02:47:25;;;;;;;31.13;24.43;;;16.40;99.90;;;;;;488541;243;29334;-79
2023/06/23 02:49:26;;;;;;;26.43;20.00;;;16.30;99.90;;;;;;488464;243;28838;-78
2023/06/23 02:51:28;;;;;;;32.17;22.77;;;16.30;99.90;;;;;;489699;242;28817;-79
2023/06/23 02:53:29;;;;;;;27.73;22.70;;;16.30;99.90;;;;;;489670;242;28838;-79
2023/06/23 02:55:30;;;;;;;33.87;25.23;;;16.30;99.90;;;;;;483303;244;28816;-79
2023/06/23 02:57:31;;;;;;;28.30;22.27;;;16.20;99.90;;;;;;489626;242;29438;-79
2023/06/23 02:59:33;;;;;;;29.67;22.87;;;16.20;99.90;;;;;;489646;242;29492;-79
2023/06/23 03:01:34;;;;;;;40.63;26.90;;;16.10;99.90;;;;;;488453;243;29365;-79
2023/06/23 03:03:35;;;;;;;30.50;24.10;;;16.10;99.90;;;;;;489687;242;28869;-79
2023/06/23 03:05:37;;;;;;;35.07;24.87;;;16.10;99.90;;;;;;488483;243;29003;-80
2023/06/23 03:07:38;;;;;;;35.47;25.97;;;16.10;99.90;;;;;;489667;242;28873;-79
2023/06/23 03:09:39;;;;;;;29.63;23.80;;;16.10;99.90;;;;;;480277;244;28880;-79
2023/06/23 03:11:40;;;;;;;32.60;24.17;;;16.10;99.90;;;;;;489629;242;28926;-79
2023/06/23 03:13:43;;;;;;;34.33;25.37;;;16.10;99.90;;;;;;489642;242;29382;-79
2023/06/23 03:15:43;;;;;;;33.40;26.00;;;16.10;99.90;;;;;;480218;244;29398;-79
2023/06/23 03:17:44;;;;;;;28.30;23.20;;;16.20;99.90;;;;;;489663;242;29338;-79
2023/06/23 03:19:45;;;;;;;30.30;24.23;;;16.20;99.90;;;;;;489694;242;28832;-79
2023/06/23 03:21:47;;;;;;;32.97;23.00;;;16.30;99.90;;;;;;488470;243;29046;-79
2023/06/23 03:23:50;;;;;;;32.17;23.90;;;16.30;99.90;;;;;;481384;244;28837;-77
2023/06/23 03:25:49;;;;;;;32.77;25.37;;;16.30;99.90;;;;;;480203;244;28852;-79
2023/06/23 03:27:50;;;;;;;43.37;31.00;;;16.30;99.90;;;;;;489645;242;28843;-78
2023/06/23 03:29:53;;;;;;;39.50;28.57;;;16.30;99.90;;;;;;481406;244;29679;-79
2023/06/23 03:31:53;;;;;;;37.33;26.87;;;16.30;99.90;;;;;;480229;244;29387;-79
2023/06/23 03:33:54;;;;;;;32.07;25.30;;;16.30;99.90;;;;;;489653;242;28875;-79
2023/06/23 03:35:55;;;;;;;36.43;25.47;;;16.30;99.90;;;;;;489638;242;28814;-79
2023/06/23 03:37:59;;;;;;;44.93;31.87;;;16.30;99.90;;;;;;480233;244;28879;-79
2023/06/23 03:39:58;;;;;;;39.30;30.03;;;16.30;99.90;;;;;;481383;244;28750;-79
2023/06/23 03:42:00;;;;;;;36.70;28.87;;;16.30;99.90;;;;;;488458;243;28879;-79
2023/06/23 03:44:00;;;;;;;35.30;28.00;;;16.20;99.90;;;;;;481417;244;29408;-78
2023/06/23 03:46:02;;;;;;;45.10;34.10;;;16.20;99.90;;;;;;488458;243;29287;-80
2023/06/23 03:48:03;;;;;;;45.93;33.40;;;16.30;99.90;;;;;;489660;242;28957;-79
2023/06/23 03:50:04;;;;;;;48.73;37.13;;;16.30;99.90;;;;;;489652;242;28872;-79
2023/06/23 03:52:05;;;;;;;47.57;32.90;;;16.30;99.90;;;;;;488444;243;28885;-79
2023/06/23 03:54:07;;;;;;;47.60;32.63;;;16.30;99.90;;;;;;489663;242;28891;-79
2023/06/23 03:56:08;;;;;;;47.90;32.07;;;16.40;99.90;;;;;;480252;244;28872;-80
2023/06/23 03:58:09;;;;;;;55.03;36.23;;;16.40;99.90;;;;;;489643;242;29379;-79
2023/06/23 04:00:11;;;;;;;45.77;33.97;;;16.40;99.90;;;;;;489668;242;29374;-79
2023/06/23 04:02:14;;;;;;;52.27;37.43;;;16.40;99.90;;;;;;480275;244;28919;-79
2023/06/23 04:04:13;;;;;;;46.87;35.77;;;16.50;99.90;;;;;;481422;244;28800;-79
2023/06/23 04:06:14;;;;;;;49.60;37.10;;;16.40;99.90;;;;;;488440;243;28880;-79
2023/06/23 04:08:16;;;;;;;42.57;30.23;;;16.40;99.90;;;;;;489651;242;28889;-78
2023/06/23 04:10:17;;;;;;;60.60;39.70;;;16.40;99.90;;;;;;489621;242;28821;-79
2023/06/23 04:12:18;;;;;;;57.33;38.50;;;16.40;99.90;;;;;;488434;243;29364;-79
2023/06/23 04:14:19;;;;;;;64.73;42.97;;;16.50;99.90;;;;;;489650;242;28825;-80
2023/06/23 04:16:21;;;;;;;53.27;37.57;;;16.50;99.90;;;;;;489649;242;28891;-79
2023/06/23 04:18:22;;;;;;;67.73;44.47;;;16.40;99.90;;;;;;488445;243;28854;-79
2023/06/23 04:20:23;;;;;;;57.93;40.07;;;16.40;99.90;;;;;;489664;242;28881;-79
2023/06/23 04:22:24;;;;;;;48.07;36.23;;;16.50;99.90;;;;;;489685;242;28990;-79
2023/06/23 04:24:26;;;;;;;50.90;36.73;;;16.50;99.90;;;;;;488483;243;28879;-79
2023/06/23 04:26:27;;;;;;;45.33;32.87;;;16.60;99.90;;;;;;489650;242;29342;-79
2023/06/23 04:28:28;;;;;;;47.20;33.33;;;16.60;99.90;;;;;;488431;243;29425;-79
2023/06/23 04:30:29;;;;;;;44.70;32.50;;;16.70;99.90;;;;;;489668;242;28921;-79
2023/06/23 04:32:31;;;;;;;60.80;42.00;;;16.70;99.90;;;;;;489640;241;28891;-79
2023/06/23 04:34:32;;;;;;;60.80;44.13;;;16.70;99.90;;;;;;480264;244;28822;-79
2023/06/23 04:36:33;;;;;;;46.47;35.03;;;16.60;99.90;;;;;;480244;244;28879;-79
2023/06/23 04:38:34;;;;;;;60.93;41.03;;;16.60;99.90;;;;;;489658;242;28863;-79
2023/06/23 04:40:36;;;;;;;54.10;39.10;;;16.60;99.90;;;;;;489664;242;28844;-79
2023/06/23 04:42:37;;;;;;;56.70;38.90;;;16.70;99.90;;;;;;488462;243;29342;-80
2023/06/23 04:44:38;;;;;;;53.43;38.10;;;16.70;99.90;;;;;;489675;242;29395;-79
2023/06/23 04:46:39;;;;;;;57.13;41.20;;;16.80;99.90;;;;;;488435;243;28877;-79
2023/06/23 04:48:41;;;;;;;55.20;37.30;;;16.80;99.90;;;;;;489624;242;28837;-79
2023/06/23 04:50:42;;;;;;;60.67;42.27;;;16.80;99.90;;;;;;489666;242;28872;-79
2023/06/23 04:52:43;;;;;;;57.37;42.03;;;16.80;99.90;;;;;;488423;243;28888;-79
2023/06/23 04:54:45;;;;;;;54.17;36.10;;;16.80;99.90;;;;;;489683;242;28899;-79
2023/06/23 04:56:47;;;;;;;50.63;35.87;;;16.80;99.90;;;;;;489669;242;29340;-79
2023/06/23 04:58:47;;;;;;;47.87;34.23;;;16.90;99.90;;;;;;483313;244;29268;-79
2023/06/23 05:00:48;;;;;;;53.20;38.90;;;17.10;99.90;;;;;;489659;242;28827;-79
2023/06/23 05:02:50;;;;;;;55.80;37.43;;;17.20;99.90;;;;;;489680;242;28868;-79
2023/06/23 05:04:51;;;;;;;46.93;33.60;;;17.10;99.90;;;;;;488460;243;28896;-79
2023/06/23 05:06:52;;;;;;;54.27;38.37;;;17.20;99.90;;;;;;489650;242;28869;-79
2023/06/23 05:08:53;;;;;;;54.23;37.70;;;17.30;99.90;;;;;;489642;242;28840;-79
2023/06/23 05:10:58;;;;;;;45.70;31.77;;;17.40;99.90;;;;;;488441;243;29404;-78
2023/06/23 05:12:56;;;;;;;38.67;30.27;;;17.50;99.90;;;;;;481360;244;29282;-80
2023/06/23 05:14:57;;;;;;;49.17;36.90;;;17.50;99.90;;;;;;488426;242;28978;-78
2023/06/23 05:16:58;;;;;;;46.70;35.93;;;17.50;99.90;;;;;;489698;242;28994;-79
2023/06/23 05:19:00;;;;;;;49.10;34.93;;;17.40;99.90;;;;;;489642;242;28928;-79
2023/06/23 05:21:01;;;;;;;44.70;33.17;;;17.40;99.90;;;;;;488454;243;28880;-80
2023/06/23 05:23:04;;;;;;;49.83;32.33;;;17.30;99.90;;;;;;489639;242;28864;-79
2023/06/23 05:25:04;;;;;;;48.60;33.23;;;17.30;99.90;;;;;;481369;244;29414;-79
2023/06/23 05:27:08;;;;;;;41.70;30.77;;;17.30;99.90;;;;;;480211;244;29294;-79
2023/06/23 05:29:06;;;;;;;43.23;31.63;;;17.40;99.90;;;;;;481368;244;28895;-79
2023/06/23 05:31:07;;;;;;;46.20;33.23;;;17.40;99.90;;;;;;488471;243;28854;-79
2023/06/23 05:33:08;;;;;;;40.53;30.73;;;17.50;99.90;;;;;;489642;242;28912;-79
2023/06/23 05:35:10;;;;;;;54.03;37.73;;;17.50;99.90;;;;;;489643;242;28888;-79
2023/06/23 05:37:11;;;;;;;41.70;30.63;;;17.40;99.90;;;;;;488462;243;28959;-79
2023/06/23 05:39:12;;;;;;;39.50;29.33;;;17.50;99.90;;;;;;489671;242;29500;-79
2023/06/23 05:41:13;;;;;;;40.33;29.97;;;17.50;99.90;;;;;;489664;242;29354;-80
2023/06/23 05:43:15;;;;;;;43.60;32.23;;;17.60;99.90;;;;;;488499;243;28982;-79
2023/06/23 05:45:16;;;;;;;34.50;27.23;;;17.60;99.90;;;;;;489677;242;28885;-79
2023/06/23 05:47:18;;;;;;;40.03;29.17;;;17.60;99.90;;;;;;489705;242;28870;-79
2023/06/23 05:49:18;;;;;;;42.17;29.87;;;17.70;99.90;;;;;;480220;244;28897;-79
2023/06/23 05:51:20;;;;;;;46.03;32.00;;;17.70;99.90;;;;;;489688;242;28957;-79
2023/06/23 05:53:21;;;;;;;34.70;27.57;;;17.70;99.90;;;;;;489636;242;28879;-79
2023/06/23 05:55:22;;;;;;;44.30;31.77;;;17.80;99.90;;;;;;488432;243;29419;-79
2023/06/23 05:57:23;;;;;;;34.10;27.03;;;17.90;99.90;;;;;;489688;242;29354;-79
2023/06/23 05:59:25;;;;;;;38.53;28.40;;;17.80;99.90;;;;;;488454;243;28869;-79
2023/06/23 06:01:26;;;;;;;36.03;27.07;;;17.80;99.90;;;;;;489698;242;28959;-78
2023/06/23 06:03:27;;;;;;;38.07;27.53;;;17.80;99.90;;;;;;489851;242;28862;-79
2023/06/23 06:05:29;;;;;;;32.57;25.63;;;17.90;99.90;;;;;;488664;243;28947;-79
2023/06/23 06:07:30;;;;;;;35.33;26.47;;;17.90;99.90;;;;;;481426;244;28890;-79
2023/06/23 06:09:31;;;;;;;31.10;23.90;;;17.80;99.90;;;;;;488432;243;29338;-79
2023/06/23 06:11:32;;;;;;;31.70;24.20;;;17.90;99.90;;;;;;489653;242;29425;-79
2023/06/23 06:13:34;;;;;;;35.47;24.13;;;18.00;99.90;;;;;;489657;242;28887;-79
2023/06/23 06:15:35;;;;;;;32.20;25.40;;;18.10;99.90;;;;;;488460;243;28867;-79
2023/06/23 06:17:36;;;;;;;31.70;24.63;;;18.30;99.90;;;;;;489631;242;28941;-80
2023/06/23 06:19:37;;;;;;;28.10;23.37;;;18.40;99.90;;;;;;489668;242;28878;-79
2023/06/23 06:21:39;;;;;;;28.57;22.10;;;18.40;99.90;;;;;;488458;243;28865;-79
2023/06/23 06:23:40;;;;;;;30.80;23.37;;;18.50;99.90;;;;;;489639;241;29351;-78
2023/06/23 06:25:41;;;;;;;28.70;23.40;;;18.60;99.90;;;;;;488447;243;29356;-80
2023/06/23 06:27:42;;;;;;;30.10;22.60;;;18.70;99.90;;;;;;481402;244;28878;-79
2023/06/23 06:29:44;;;;;;;30.00;24.40;;;18.60;99.90;;;;;;489659;242;28825;-79
2023/06/23 06:31:45;;;;;;;28.70;23.70;;;18.60;99.90;;;;;;488517;243;28857;-79
2023/06/23 06:33:46;;;;;;;34.43;26.13;;;18.70;99.90;;;;;;489772;242;28882;-79
2023/06/23 06:35:47;;;;;;;29.53;22.53;;;18.70;99.90;;;;;;488605;243;28916;-79
2023/06/23 06:37:49;;;;;;;29.53;23.93;;;18.80;99.90;;;;;;489855;242;29317;-78
2023/06/23 06:39:50;;;;;;;37.53;27.10;;;19.00;99.90;;;;;;489818;242;29348;-79
2023/06/23 06:41:51;;;;;;;30.63;23.43;;;19.10;99.90;;;;;;488516;243;28909;-79
2023/06/23 06:43:52;;;;;;;29.37;21.80;;;19.20;99.90;;;;;;489652;242;28967;-80
2023/06/23 06:45:54;;;;;;;27.77;22.27;;;19.30;99.90;;;;;;488466;243;28841;-80
2023/06/23 06:47:55;;;;;;;28.00;20.90;;;19.30;99.90;;;;;;489640;242;28852;-79
2023/06/23 06:49:56;;;;;;;24.50;21.07;;;19.40;99.90;;;;;;489646;242;28962;-79
2023/06/23 06:51:57;;;;;;;29.40;22.90;;;19.40;99.90;;;;;;488438;243;29490;-80
2023/06/23 06:53:59;;;;;;;23.90;20.60;;;19.50;99.90;;;;;;489657;242;29299;-80
2023/06/23 06:56:00;;;;;;;21.00;16.70;;;19.40;99.90;;;;;;489631;242;28966;-79
2023/06/23 06:58:02;;;;;;;19.07;16.20;;;19.40;99.90;;;;;;488450;243;28882;-79
2023/06/23 07:00:03;;;;;;;24.10;17.00;;;19.10;99.90;;;;;;483330;244;28738;-79
2023/06/23 07:02:04;;;;;;;18.40;15.30;;;19.30;99.90;;;;;;488428;243;28867;-79
2023/06/23 07:04:05;;;;;;;17.27;14.30;;;19.30;99.90;;;;;;489645;242;28955;-79
2023/06/23 07:06:06;;;;;;;18.10;13.73;;;19.10;99.90;;;;;;489675;242;29546;-80
2023/06/23 07:08:07;;;;;;;14.87;13.23;;;18.90;99.90;;;;;;488488;243;28853;-79
2023/06/23 07:10:09;;;;;;;17.70;12.40;;;18.80;99.90;;;;;;489660;242;28866;-79
2023/06/23 07:12:10;;;;;;;12.67;10.63;;;18.80;99.90;;;;;;488552;243;28860;-79
2023/06/23 07:14:11;;;;;;;14.80;11.87;;;18.80;99.90;;;;;;489759;242;28837;-79
2023/06/23 07:16:13;;;;;;;14.87;10.77;;;18.70;99.90;;;;;;489812;242;28990;-80
2023/06/23 07:18:14;;;;;;;16.10;11.90;;;18.60;99.90;;;;;;488541;243;28896;-79
2023/06/23 07:20:15;;;;;;;14.17;11.27;;;18.60;99.90;;;;;;489790;242;29371;-79
2023/06/23 07:22:16;;;;;;;15.87;10.97;;;18.60;99.90;;;;;;489748;242;29439;-79
2023/06/23 07:24:18;;;;;;;14.40;10.73;;;18.70;99.90;;;;;;481922;244;29327;-78
2023/06/23 07:26:19;;;;;;;11.70;10.07;;;18.90;99.90;;;;;;489727;242;28914;-79
2023/06/23 07:28:20;;;;;;;10.60;9.00;;;19.10;99.90;;;;;;488542;243;28820;-79
2023/06/23 07:30:21;;;;;;;13.73;9.37;;;19.20;99.90;;;;;;481115;243;28932;-80
2023/06/23 07:32:23;;;;;;;9.43;8.00;;;19.50;99.90;;;;;;479643;244;28916;-80
2023/06/23 07:34:24;;;;;;;9.70;8.50;;;19.60;99.90;;;;;;471732;243;28957;-79
2023/06/23 07:36:25;;;;;;;9.90;8.63;;;19.60;99.90;;;;;;481054;243;28873;-79
2023/06/23 07:38:27;;;;;;;9.40;8.50;;;19.50;99.90;;;;;;481075;243;29379;-79
2023/06/23 07:40:28;;;;;;;8.10;7.27;;;19.40;99.90;;;;;;471802;244;29307;-79
2023/06/23 07:42:29;;;;;;;12.50;9.20;;;19.50;99.90;;;;;;479648;244;29250;-79
2023/06/23 07:44:31;;;;;;;10.70;7.80;;;19.40;99.90;;;;;;481049;243;28860;-80
2023/06/23 07:46:34;;;;;;;13.30;8.40;;;19.50;99.90;;;;;;471710;243;28870;-79
2023/06/23 07:48:33;;;;;;;7.50;6.70;;;19.60;99.90;;;;;;471645;243;28869;-79
2023/06/23 07:50:34;;;;;;;7.57;6.93;;;19.60;99.90;;;;;;481030;243;28867;-80
2023/06/23 07:52:35;;;;;;;9.10;7.40;;;19.50;99.90;;;;;;481077;243;28806;-80
2023/06/23 07:54:36;;;;;;;8.93;7.80;;;19.50;99.90;;;;;;482960;244;28887;-80
2023/06/23 07:56:38;;;;;;;10.53;7.33;;;19.50;99.90;;;;;;481194;243;28978;-81
2023/06/23 07:58:39;;;;;;;11.13;8.63;;;19.60;99.90;;;;;;479725;244;28769;-80
2023/06/23 08:00:40;;;;;;;9.30;8.17;;;19.50;99.90;;;;;;483022;244;29362;-80
2023/06/23 08:02:41;;;;;;;9.70;7.80;;;19.40;99.90;;;;;;471867;244;29284;-80
2023/06/23 08:04:43;;;;;;;8.37;7.43;;;19.50;99.90;;;;;;471768;243;29382;-80
2023/06/23 08:06:44;;;;;;;7.40;6.70;;;19.40;99.90;;;;;;481076;243;28898;-79
2023/06/23 08:08:47;;;;;;;8.13;6.97;;;19.60;99.90;;;;;;481058;243;28939;-79
2023/06/23 08:10:46;;;;;;;9.37;8.40;;;19.50;99.90;;;;;;471341;244;28886;-79
2023/06/23 08:12:48;;;;;;;7.80;6.53;;;19.50;99.90;;;;;;479658;244;28817;-80
2023/06/23 08:14:49;;;;;;;9.43;7.87;;;19.60;99.90;;;;;;479630;244;28782;-80
2023/06/23 08:16:50;;;;;;;7.90;7.03;;;19.70;99.90;;;;;;481036;243;28965;-80
2023/06/23 08:18:52;;;;;;;7.40;6.33;;;19.80;99.90;;;;;;481069;243;28862;-79
2023/06/23 08:20:54;;;;;;;7.27;6.57;;;20.00;99.90;;;;;;479517;244;28768;-80
2023/06/23 08:22:54;;;;;;;10.03;7.80;;;20.20;99.90;;;;;;471734;243;28913;-80
2023/06/23 08:24:55;;;;;;;12.83;8.30;;;20.20;99.90;;;;;;481047;243;29347;-79
2023/06/23 08:26:56;;;;;;;8.37;7.47;;;20.10;99.90;;;;;;481045;243;29760;-80
2023/06/23 08:28:58;;;;;;;11.23;7.93;;;20.20;99.90;;;;;;481044;243;29335;-80
2023/06/23 08:30:59;;;;;;;6.50;5.90;;;20.20;99.90;;;;;;479622;244;28767;-80
2023/06/23 08:33:00;;;;;;;7.10;6.33;;;20.40;99.90;;;;;;481052;243;28888;-80
2023/06/23 08:35:02;;;;;;;8.57;7.00;;;20.50;99.90;;;;;;481812;244;28955;-80
2023/06/23 08:37:03;;;;;;;6.30;5.70;;;20.70;99.90;;;;;;479626;244;28765;-80
2023/06/23 08:39:05;;;;;;;6.60;6.00;;;21.00;99.90;;;;;;471823;243;28816;-80
2023/06/23 08:41:05;;;;;;;8.70;6.33;;;20.90;99.90;;;;;;479617;244;28792;-79
2023/06/23 08:43:06;;;;;;;5.40;5.00;;;20.60;99.90;;;;;;481034;243;28871;-80
2023/06/23 08:45:08;;;;;;;7.60;6.47;;;20.50;99.90;;;;;;481048;244;28977;-81
2023/06/23 08:47:09;;;;;;;7.03;6.30;;;20.40;99.90;;;;;;479634;244;29255;-80
2023/06/23 08:49:10;;;;;;;6.33;5.60;;;20.60;99.90;;;;;;479602;244;29241;-80
2023/06/23 08:51:11;;;;;;;5.70;5.10;;;20.90;99.90;;;;;;481071;243;29289;-80
2023/06/23 08:53:13;;;;;;;5.93;5.43;;;21.00;99.90;;;;;;479617;244;29234;-80
2023/06/23 08:55:14;;;;;;;7.40;5.40;;;21.10;99.90;;;;;;481028;244;28877;-80
2023/06/23 08:57:15;;;;;;;6.43;5.10;;;21.10;99.90;;;;;;479622;244;28763;-80
2023/06/23 08:59:16;;;;;;;5.60;5.10;;;20.70;99.90;;;;;;481027;243;28859;-80
2023/06/23 09:01:18;;;;;;;4.67;4.20;;;20.70;99.90;;;;;;481035;243;28971;-79
2023/06/23 09:03:19;;;;;;;5.30;4.80;;;20.80;99.90;;;;;;479637;244;28723;-80
2023/06/23 09:05:20;;;;;;;6.73;4.60;;;20.90;99.90;;;;;;481034;243;28841;-80
2023/06/23 09:07:21;;;;;;;5.83;4.50;;;20.90;99.90;;;;;;471788;243;28919;-80
2023/06/23 09:09:23;;;;;;;5.57;4.33;;;21.00;99.90;;;;;;479601;244;28767;-79
2023/06/23 09:11:24;;;;;;;6.13;5.00;;;20.90;99.90;;;;;;481032;243;28877;-80
2023/06/23 09:13:27;;;;;;;4.93;4.43;;;20.80;99.90;;;;;;481015;244;29339;-80
2023/06/23 09:15:26;;;;;;;5.43;4.67;;;20.90;99.90;;;;;;479533;244;29323;-80
2023/06/23 09:17:28;;;;;;;5.50;4.40;;;21.00;99.90;;;;;;481061;243;29687;-80
2023/06/23 09:19:30;;;;;;;5.90;4.53;;;21.00;99.90;;;;;;479617;244;28766;-81
2023/06/23 09:21:30;;;;;;;5.47;4.67;;;21.10;99.90;;;;;;471764;244;28953;-80
2023/06/23 09:23:32;;;;;;;5.73;4.97;;;21.10;99.90;;;;;;481056;243;28854;-81
2023/06/23 09:25:33;;;;;;;4.67;4.13;;;21.10;99.90;;;;;;479592;244;28833;-81
2023/06/23 09:27:34;;;;;;;4.47;4.07;;;21.10;99.90;;;;;;481068;244;28812;-81
2023/06/23 09:29:37;;;;;;;5.30;4.23;;;21.20;99.90;;;;;;481036;243;28879;-80
2023/06/23 09:31:36;;;;;;;4.33;3.93;;;21.30;99.90;;;;;;479519;244;28841;-81
2023/06/23 09:33:38;;;;;;;5.30;4.20;;;21.40;99.90;;;;;;481048;243;28852;-80
2023/06/23 09:35:39;;;;;;;7.57;4.50;;;21.60;99.90;;;;;;484979;244;28787;-80
2023/06/23 09:37:40;;;;;;;5.57;3.87;;;21.50;99.90;;;;;;484940;244;29684;-81
2023/06/23 09:39:41;;;;;;;4.77;4.30;;;21.20;99.90;;;;;;484928;244;29259;-80
2023/06/23 09:41:43;;;;;;;5.70;4.57;;;21.10;99.90;;;;;;484970;244;29263;-80
2023/06/23 09:43:44;;;;;;;4.70;4.13;;;21.00;99.90;;;;;;484951;244;29253;-80
2023/06/23 09:45:45;;;;;;;5.17;4.43;;;20.80;99.90;;;;;;484958;244;28723;-80
2023/06/23 09:47:47;;;;;;;5.70;4.37;;;20.80;99.90;;;;;;484942;244;28811;-80
2023/06/23 09:49:48;;;;;;;5.43;4.87;;;20.70;99.90;;;;;;484920;244;28704;-80
2023/06/23 09:51:49;;;;;;;5.50;4.50;;;20.70;99.90;;;;;;479645;244;28746;-79
2023/06/23 09:53:50;;;;;;;4.37;3.90;;;20.70;99.90;;;;;;481039;243;28862;-79
2023/06/23 09:55:51;;;;;;;5.73;4.27;;;21.00;99.90;;;;;;479609;244;28767;-79
2023/06/23 09:57:53;;;;;;;4.83;3.90;;;21.10;99.90;;;;;;481029;243;28983;-80
2023/06/23 09:59:55;;;;;;;6.80;3.77;;;21.30;99.90;;;;;;481031;244;28859;-80
2023/06/23 10:01:55;;;;;;;4.70;3.70;;;21.70;99.90;;;;;;486191;244;29243;-80
2023/06/23 10:03:56;;;;;;;4.40;3.67;;;22.00;99.90;;;;;;484969;244;29178;-81
2023/06/23 10:05:58;;;;;;;5.60;4.33;;;22.10;99.90;;;;;;484965;244;29266;-79
2023/06/23 10:07:59;;;;;;;4.30;3.90;;;22.00;99.90;;;;;;484956;244;29213;-80
2023/06/23 10:10:01;;;;;;;4.47;3.80;;;21.80;99.90;;;;;;481038;244;28847;-80
2023/06/23 10:12:02;;;;;;;3.30;3.00;;;21.50;99.90;;;;;;479626;244;28803;-80
2023/06/23 10:14:05;;;;;;;3.63;3.33;;;21.20;99.90;;;;;;477440;244;28813;-80
2023/06/23 10:16:04;;;;;;;4.33;3.87;;;21.10;99.90;;;;;;476125;249;28778;-80
2023/06/23 10:18:05;;;;;;;4.00;3.60;;;21.20;99.90;;;;;;477593;248;28742;-80
2023/06/23 10:20:07;;;;;;;6.47;3.47;;;21.40;99.90;;;;;;477605;248;28735;-80
2023/06/23 10:22:08;;;;;;;3.43;3.13;;;21.60;99.90;;;;;;474169;249;28788;-80